Wiergate, Texas
Current Conditions -  °F | °C
As of 7:35 AM on Sunday 23 Nov 2014 (Local Time) from KJAS Reporting Station
Overcast Overcast  
Wind Chill: 59°   Ceiling: 2400
Heat Index: 59°   Visibility: 10mi
Dew Point: 58°   Wind: 5mph
Humidity: 96%   Direction: 260°W
Pressure: 29.66"   Gusts: NA
Location:  31°N, 93.71°W
Report Text: KJAS 231335Z AUTO 26004KT 10SM SCT006 BKN024 OVC055 15/15 A2966 RMK AO2 T01520146
Loading
Personal Weather Stations






























Interactive Weather Map New forecast layout! Learn more

10-Day Weather Forecast

Advertisements
Track Severe Weather on mobile